createdAt,value
2017-09-25T00:02:09.309Z,101908.10
2017-09-25T00:04:37.941Z,101909.62
2017-09-25T00:07:06.568Z,101904.92
2017-09-25T00:09:37.412Z,101902.16
2017-09-25T00:12:06.289Z,101906.17
2017-09-25T00:14:35.977Z,101909.48
2017-09-25T00:17:04.776Z,101911.14
2017-09-25T00:19:35.932Z,101903.81
2017-09-25T00:22:06.964Z,101906.84
2017-09-25T00:24:38.018Z,101904.78
2017-09-25T00:27:06.763Z,101908.93
2017-09-25T00:29:35.280Z,101907.96
2017-09-25T00:32:03.735Z,101909.61
2017-09-25T00:34:32.126Z,101900.36
2017-09-25T00:37:05.418Z,101898.56
2017-09-25T00:39:41.225Z,101895.24
2017-09-25T00:42:09.735Z,101892.21
2017-09-25T00:44:38.032Z,101894.97
2017-09-25T00:47:06.386Z,101890.00
2017-09-25T00:49:34.716Z,101887.80
2017-09-25T00:52:03.151Z,101887.38
2017-09-25T00:54:31.464Z,101886.00
2017-09-25T00:56:59.880Z,101884.49
2017-09-25T00:59:29.775Z,101888.40
2017-09-25T01:02:08.329Z,101881.77
2017-09-25T01:04:45.733Z,101887.44
2017-09-25T01:07:14.107Z,101889.84
2017-09-25T01:09:42.419Z,101898.55
2017-09-25T01:12:10.967Z,101885.58
2017-09-25T01:14:39.287Z,101890.17
2017-09-25T01:17:07.828Z,101888.94
2017-09-25T01:19:36.491Z,101891.71
2017-09-25T01:22:04.915Z,101887.47
2017-09-25T01:24:33.416Z,101888.03
2017-09-25T01:27:01.805Z,101889.69
2017-09-25T01:29:30.383Z,101885.28
2017-09-25T01:31:58.716Z,101880.77
2017-09-25T01:34:27.016Z,101879.11
2017-09-25T01:36:55.368Z,101884.36
2017-09-25T01:39:23.705Z,101875.98
2017-09-25T01:41:52.224Z,101872.12
2017-09-25T01:44:20.652Z,101872.13
2017-09-25T01:46:49.193Z,101876.59
2017-09-25T01:49:17.603Z,101877.28
2017-09-25T01:51:45.924Z,101872.88
2017-09-25T01:54:14.325Z,101873.28
2017-09-25T01:56:42.657Z,101876.59
2017-09-25T01:59:10.976Z,101875.22
2017-09-25T02:01:39.315Z,101876.05
2017-09-25T02:04:07.623Z,101871.34
2017-09-25T02:06:35.978Z,101868.59
2017-09-25T02:09:04.548Z,101866.38
2017-09-25T02:11:32.896Z,101867.06
2017-09-25T02:14:01.420Z,101864.30
2017-09-25T02:16:29.912Z,101862.38
2017-09-25T02:18:58.418Z,101858.64
2017-09-25T02:21:26.867Z,101855.61
2017-09-25T02:23:55.158Z,101848.15
2017-09-25T02:26:23.623Z,101839.87
2017-09-25T02:28:52.004Z,101845.94
2017-09-25T02:31:20.414Z,101852.58
2017-09-25T02:33:48.728Z,101846.09
2017-09-25T02:36:17.135Z,101849.41
2017-09-25T02:38:45.588Z,101850.78
2017-09-25T02:41:14.131Z,101844.43
2017-09-25T02:43:42.493Z,101845.55
2017-09-25T02:46:10.871Z,101847.09
2017-09-25T02:48:39.251Z,101845.55
2017-09-25T02:51:07.609Z,101845.12
2017-09-25T02:53:35.931Z,101839.05
2017-09-25T02:56:04.226Z,101843.37
2017-09-25T02:58:32.542Z,101835.59
2017-09-25T03:01:00.967Z,101839.05
2017-09-25T03:03:29.307Z,101838.91
2017-09-25T03:05:57.622Z,101836.16
2017-09-25T03:08:26.059Z,101835.45
2017-09-25T03:10:54.758Z,101832.56
2017-09-25T03:13:23.080Z,101827.59
2017-09-25T03:15:51.407Z,101825.80
2017-09-25T03:18:19.777Z,101823.63
2017-09-25T03:20:48.120Z,101819.90
2017-09-25T03:23:16.399Z,101811.20
2017-09-25T03:25:44.855Z,101811.62
2017-09-25T03:28:13.132Z,101810.93
2017-09-25T03:30:41.484Z,101808.17
2017-09-25T03:33:09.966Z,101797.27
2017-09-25T03:35:38.576Z,101805.97
2017-09-25T03:38:06.872Z,101802.94
2017-09-25T03:40:35.183Z,101814.80
2017-09-25T03:43:03.754Z,101804.31
2017-09-25T03:45:32.102Z,101812.04
2017-09-25T03:48:00.468Z,101805.28
2017-09-25T03:50:28.831Z,101797.00
2017-09-25T03:52:57.130Z,101788.45
2017-09-25T03:55:25.436Z,101793.31
2017-09-25T03:57:53.820Z,101802.80
2017-09-25T04:03:19.938Z,101797.19
2017-09-25T04:05:48.830Z,101798.30
2017-09-25T04:08:17.716Z,101800.50
2017-09-25T04:10:46.409Z,101800.36
2017-09-25T04:13:15.581Z,101802.98
2017-09-25T04:15:44.436Z,101799.22
2017-09-25T04:18:13.515Z,101796.08
2017-09-25T04:20:42.611Z,101793.70
2017-09-25T04:23:11.483Z,101797.05
2017-09-25T04:25:40.410Z,101793.88
2017-09-25T04:28:09.231Z,101792.48
2017-09-25T04:30:38.195Z,101787.25
2017-09-25T04:34:05.755Z,101784.68
2017-09-25T04:36:34.519Z,101783.58
2017-09-25T04:39:03.202Z,101780.82
2017-09-25T04:41:31.905Z,101784.41
2017-09-25T04:44:00.939Z,101792.42
2017-09-25T04:46:29.681Z,101798.64
2017-09-25T04:48:58.556Z,101806.50
2017-09-25T04:51:27.435Z,101802.67
2017-09-25T04:53:56.111Z,101798.53
2017-09-25T04:56:24.619Z,101796.62
2017-09-25T04:58:53.255Z,101799.94
2017-09-25T05:01:22.262Z,101804.95
2017-09-25T05:03:50.770Z,101815.69
2017-09-25T05:06:19.462Z,101805.20
2017-09-25T05:08:48.632Z,101799.13
2017-09-25T05:11:17.117Z,101800.38
2017-09-25T05:13:45.970Z,101795.54
2017-09-25T05:16:14.542Z,101787.54
2017-09-25T05:18:43.347Z,101781.64
2017-09-25T05:21:11.930Z,101792.55
2017-09-25T05:23:40.518Z,101798.77
2017-09-25T05:26:09.451Z,101793.70
2017-09-25T05:28:39.632Z,101794.81
2017-09-25T05:31:08.468Z,101799.50
2017-09-25T05:33:37.278Z,101803.37
2017-09-25T05:36:05.915Z,101798.81
2017-09-25T05:38:34.703Z,101808.75
2017-09-25T05:41:03.216Z,101804.88
2017-09-25T05:43:32.123Z,101806.36
2017-09-25T05:46:00.974Z,101806.08
2017-09-25T05:48:29.712Z,101803.31
2017-09-25T05:50:58.635Z,101801.52
2017-09-25T05:53:27.670Z,101805.10
2017-09-25T05:55:56.547Z,101807.73
2017-09-25T05:58:25.208Z,101808.70
2017-09-25T06:00:53.987Z,101806.63
2017-09-25T06:03:22.558Z,101800.96
2017-09-25T06:05:51.139Z,101805.52
2017-09-25T06:08:19.754Z,101798.44
2017-09-25T06:10:48.622Z,101807.27
2017-09-25T06:13:17.135Z,101805.39
2017-09-25T06:15:47.078Z,101806.81
2017-09-25T06:18:15.841Z,101805.70
2017-09-25T06:20:44.560Z,101808.88
2017-09-25T06:23:16.788Z,101816.98
2017-09-25T06:25:45.761Z,101816.02
2017-09-25T06:28:14.515Z,101812.30
2017-09-25T06:30:43.919Z,101816.28
2017-09-25T06:33:12.946Z,101820.11
2017-09-25T06:35:41.522Z,101828.14
2017-09-25T06:38:10.543Z,101821.94
2017-09-25T06:40:41.118Z,101802.38
2017-09-25T06:43:10.875Z,101817.58
2017-09-25T06:45:39.550Z,101818.27
2017-09-25T06:48:08.219Z,101812.33
2017-09-25T06:50:36.861Z,101811.78
2017-09-25T06:53:07.420Z,101812.14
2017-09-25T06:55:37.654Z,101811.73
2017-09-25T06:58:07.478Z,101815.05
2017-09-25T07:00:36.393Z,101817.11
2017-09-25T07:03:04.911Z,101812.53
2017-09-25T07:05:33.446Z,101819.11
2017-09-25T07:08:01.967Z,101821.39
2017-09-25T07:10:32.938Z,101823.42
2017-09-25T07:13:02.443Z,101825.79
2017-09-25T07:15:31.621Z,101828.97
2017-09-25T07:18:02.362Z,101823.42
2017-09-25T07:20:33.487Z,101831.17
2017-09-25T07:23:02.860Z,101831.70
2017-09-25T07:25:32.179Z,101832.09
2017-09-25T07:28:01.107Z,101822.17
2017-09-25T07:30:29.939Z,101826.58
2017-09-25T07:32:58.783Z,101823.52
2017-09-25T07:35:27.735Z,101828.31
2017-09-25T07:37:57.002Z,101831.20
2017-09-25T07:40:25.649Z,101828.72
2017-09-25T07:42:54.271Z,101835.91
2017-09-25T07:45:22.968Z,101836.03
2017-09-25T07:47:51.579Z,101829.00
2017-09-25T07:50:20.207Z,101832.88
2017-09-25T07:52:48.826Z,101830.52
2017-09-25T07:55:18.336Z,101836.55
2017-09-25T07:57:46.916Z,101840.45
2017-09-25T08:00:15.543Z,101845.51
2017-09-25T08:02:44.271Z,101835.56
2017-09-25T08:05:14.851Z,101841.37
2017-09-25T08:07:48.751Z,101849.08
2017-09-25T08:10:17.464Z,101846.20
2017-09-25T08:12:45.985Z,101848.83
2017-09-25T08:15:17.608Z,101845.23
2017-09-25T08:17:46.339Z,101841.87
2017-09-25T08:20:15.002Z,101844.48
2017-09-25T08:22:43.502Z,101840.01
2017-09-25T08:25:12.030Z,101848.15
2017-09-25T08:27:40.598Z,101843.53
2017-09-25T08:30:09.370Z,101845.55
2017-09-25T08:32:37.955Z,101853.50
2017-09-25T08:35:06.847Z,101852.20
2017-09-25T08:37:35.595Z,101849.77
2017-09-25T08:40:04.486Z,101852.89
2017-09-25T08:42:33.329Z,101853.40
2017-09-25T08:45:02.070Z,101854.08
2017-09-25T08:47:31.080Z,101857.95
2017-09-25T08:49:59.777Z,101855.23
2017-09-25T08:52:28.492Z,101851.51
2017-09-25T08:54:57.383Z,101855.25
2017-09-25T08:57:26.268Z,101861.09
2017-09-25T08:59:54.960Z,101857.37
2017-09-25T09:02:23.806Z,101863.17
2017-09-25T09:04:52.483Z,101853.10
2017-09-25T09:07:21.474Z,101855.85
2017-09-25T09:09:50.047Z,101860.55
2017-09-25T09:12:18.764Z,101860.69
2017-09-25T09:14:47.779Z,101864.00
2017-09-25T09:17:16.597Z,101864.69
2017-09-25T09:19:45.207Z,101866.90
2017-09-25T09:22:14.059Z,101868.00
2017-09-25T09:24:42.622Z,101862.48
2017-09-25T09:27:11.154Z,101860.27
2017-09-25T09:29:39.630Z,101864.09
2017-09-25T09:32:08.387Z,101863.25
2017-09-25T09:34:36.961Z,101855.38
2017-09-25T09:37:06.028Z,101854.40
2017-09-25T09:39:34.781Z,101852.75
2017-09-25T09:42:03.812Z,101855.19
2017-09-25T09:44:32.675Z,101856.89
2017-09-25T09:47:01.350Z,101862.37
2017-09-25T09:49:30.232Z,101861.80
